Time;durP1;ratioP1;P1;durP2;ratioP2;P2;SDS_P1;SDS_P2;PMS_P1;PMS_P2;Temp;Humidity;BMP_temperature;BMP_pressure;BME280_temperature;BME280_humidity;BME280_pressure;Samples;Min_cycle;Max_cycle;Signal;HPM_P1;HPM_P2
2021/09/17 00:01:45;;;;;;;0.75;0.75;;;;;;;19.11;62.56;101859.41;5028886;28;20029;-87
2021/09/17 00:04:11;;;;;;;1.88;1.55;;;;;;;19.13;62.13;101860.19;5023299;28;20424;-90
2021/09/17 00:06:38;;;;;;;0.30;0.30;;;;;;;19.13;62.04;101849.44;5021845;28;20033;-88
2021/09/17 00:09:04;;;;;;;0.10;0.10;;;;;;;19.12;62.54;101853.97;5016830;28;20440;-90
2021/09/17 00:11:30;;;;;;;0.47;0.47;;;;;;;19.14;62.37;101856.56;5030719;28;20101;-90
2021/09/17 00:13:57;;;;;;;0.75;0.75;;;;;;;19.13;62.31;101850.34;5021177;28;20025;-89
2021/09/17 00:16:23;;;;;;;2.08;1.00;;;;;;;19.14;62.86;101851.19;5023668;28;20500;-89
2021/09/17 00:18:50;;;;;;;1.00;1.00;;;;;;;19.15;62.47;101853.84;5028407;28;20103;-90
2021/09/17 00:21:16;;;;;;;0.30;0.30;;;;;;;19.15;62.33;101850.28;5018073;28;20366;-87
2021/09/17 00:23:42;;;;;;;1.02;0.93;;;;;;;19.15;62.44;101850.28;5029017;28;20033;-89
2021/09/17 00:26:09;;;;;;;0.10;0.10;;;;;;;19.15;62.42;101842.22;5023117;28;20071;-89
2021/09/17 00:28:37;;;;;;;2.42;1.60;;;;;;;19.18;62.23;101847.47;5021677;28;20022;-89
2021/09/17 00:31:04;;;;;;;0.57;0.57;;;;;;;19.17;62.34;101838.53;5030126;28;20052;-90
2021/09/17 00:33:31;;;;;;;0.10;0.10;;;;;;;19.16;62.75;101839.44;5019142;28;20025;-92
2021/09/17 00:35:57;;;;;;;0.20;0.20;;;;;;;19.18;62.30;101831.34;5034289;28;20025;-90
2021/09/17 00:38:24;;;;;;;0.32;0.32;;;;;;;19.20;62.55;101837.53;5034055;28;20026;-91
2021/09/17 00:40:50;;;;;;;0.10;0.10;;;;;;;19.21;62.48;101839.28;5033652;28;20483;-92
2021/09/17 00:43:17;;;;;;;0.22;0.22;;;;;;;19.22;62.53;101835.66;5032242;28;20431;-89
2021/09/17 00:45:44;;;;;;;0.98;0.98;;;;;;;19.23;62.07;101834.72;5018796;28;20056;-92
2021/09/17 00:48:11;;;;;;;0.73;0.73;;;;;;;19.24;62.43;101833.78;5033968;28;20025;-92
2021/09/17 00:50:38;;;;;;;1.25;1.15;;;;;;;19.27;62.41;101836.34;5034086;28;20484;-88
2021/09/17 00:53:04;;;;;;;0.10;0.10;;;;;;;19.27;62.72;101830.97;5033716;28;20073;-89
2021/09/17 00:55:31;;;;;;;0.75;0.75;;;;;;;19.30;62.39;101828.19;5030539;28;20031;-89
2021/09/17 00:57:58;;;;;;;0.10;0.10;;;;;;;19.30;62.74;101828.19;5033535;28;20473;-92
2021/09/17 01:00:24;;;;;;;0.00;0.00;;;;;;;19.32;62.74;101828.09;5022320;28;20026;-91
2021/09/17 01:02:51;;;;;;;0.38;0.38;;;;;;;19.32;62.86;101826.28;5027596;28;20041;-89
2021/09/17 01:05:18;;;;;;;0.50;0.50;;;;;;;19.34;63.15;101820.84;5026652;28;20488;-90
2021/09/17 01:07:45;;;;;;;0.20;0.20;;;;;;;19.32;62.82;101818.22;5029827;28;20053;-86
2021/09/17 01:10:12;;;;;;;0.08;0.08;;;;;;;19.34;63.02;101816.34;5034821;28;20104;-89
2021/09/17 01:12:39;;;;;;;0.50;0.50;;;;;;;19.35;63.03;101812.72;5036493;28;20032;-86
2021/09/17 01:15:09;;;;;;;0.20;0.20;;;;;;;19.38;62.96;101809.03;5034137;28;20109;-87
2021/09/17 01:17:39;;;;;;;0.10;0.10;;;;;;;19.38;63.07;101807.22;5023567;28;20022;-91
2021/09/17 01:20:08;;;;;;;0.00;0.00;;;;;;;19.39;63.12;101803.59;5032936;28;20306;-83
2021/09/17 01:22:34;;;;;;;0.45;0.40;;;;;;;19.34;62.82;101802.91;5028411;28;20465;-83
2021/09/17 01:25:01;;;;;;;1.42;1.38;;;;;;;19.40;62.92;101805.34;5029843;28;20495;-83
2021/09/17 01:27:27;;;;;;;0.90;0.90;;;;;;;19.42;62.99;101801.72;5016764;28;20539;-87
2021/09/17 01:29:53;;;;;;;0.20;0.20;;;;;;;19.42;63.15;101796.34;5026829;28;20030;-89
2021/09/17 01:32:20;;;;;;;1.33;0.52;;;;;;;19.43;63.15;101798.06;5027147;28;20038;-82
2021/09/17 01:34:47;;;;;;;0.10;0.10;;;;;;;19.42;62.99;101794.53;5031844;28;20041;-86
2021/09/17 01:37:13;;;;;;;0.32;0.32;;;;;;;19.43;63.19;101793.59;5032985;28;20452;-81
2021/09/17 01:39:39;;;;;;;0.60;0.60;;;;;;;19.42;63.44;101790.97;5032833;28;20109;-88
2021/09/17 01:42:06;;;;;;;0.20;0.20;;;;;;;19.40;63.16;101797.28;5024913;28;20029;-84
2021/09/17 01:44:40;;;;;;;0.20;0.20;;;;;;;19.46;63.34;101789.91;5025085;28;20033;-82
2021/09/17 01:47:07;;;;;;;1.13;1.13;;;;;;;19.45;63.38;101793.53;5033321;28;20021;-89
2021/09/17 01:49:34;;;;;;;0.55;0.55;;;;;;;19.45;63.40;101789.03;5016718;28;20025;-86
2021/09/17 01:52:02;;;;;;;0.20;0.20;;;;;;;19.46;63.38;101787.22;5025592;28;20084;-90
2021/09/17 01:54:28;;;;;;;2.05;1.95;;;;;;;19.47;63.41;101778.22;5025484;28;20034;-89
2021/09/17 01:56:55;;;;;;;0.20;0.20;;;;;;;19.48;63.11;101775.44;5027880;28;20033;-90
2021/09/17 01:59:21;;;;;;;0.10;0.10;;;;;;;19.49;63.17;101776.31;5033166;28;20423;-83
2021/09/17 02:01:48;;;;;;;0.20;0.20;;;;;;;19.52;62.88;101776.19;5033012;28;20018;-89
2021/09/17 02:04:16;;;;;;;1.40;1.33;;;;;;;19.53;62.96;101767.19;5023753;28;20084;-85
2021/09/17 02:06:42;;;;;;;0.30;0.30;;;;;;;19.53;63.21;101770.75;5026350;28;20036;-84
2021/09/17 02:09:09;;;;;;;1.65;1.08;;;;;;;19.54;63.30;101760.91;5034334;28;20476;-86
2021/09/17 02:11:35;;;;;;;0.63;0.63;;;;;;;19.58;63.05;101764.28;5018410;28;20026;-82
2021/09/17 02:14:02;;;;;;;0.63;0.63;;;;;;;19.58;63.10;101766.97;5028903;28;20030;-86
2021/09/17 02:16:29;;;;;;;1.88;1.60;;;;;;;19.59;63.04;101769.63;5027221;28;20401;-82
2021/09/17 02:18:56;;;;;;;2.83;0.68;;;;;;;19.58;63.21;101759.81;5035985;28;20029;-82
2021/09/17 02:21:22;;;;;;;0.45;0.45;;;;;;;19.58;63.13;101759.81;5035674;28;20068;-82
2021/09/17 02:23:50;;;;;;;0.10;0.10;;;;;;;19.60;62.88;101760.63;5036386;28;20033;-81
2021/09/17 02:26:18;;;;;;;0.50;0.50;;;;;;;19.59;63.05;101760.66;5026706;28;20428;-82
2021/09/17 02:28:45;;;;;;;0.50;0.50;;;;;;;19.58;63.15;101759.81;5029748;28;20036;-82
2021/09/17 02:31:11;;;;;;;1.40;1.30;;;;;;;19.60;63.08;101752.56;5035856;28;20041;-82
2021/09/17 02:33:39;;;;;;;0.20;0.20;;;;;;;19.61;63.04;101751.59;5035766;28;20080;-82
2021/09/17 02:36:06;;;;;;;1.75;0.95;;;;;;;19.58;62.98;101737.41;5034990;28;20026;-82
2021/09/17 02:38:34;;;;;;;0.20;0.20;;;;;;;19.60;62.90;101741.81;5035931;28;20037;-82
2021/09/17 02:41:02;;;;;;;0.13;0.13;;;;;;;19.60;63.25;101740.91;5034496;28;20424;-82
2021/09/17 02:43:29;;;;;;;0.73;0.47;;;;;;;19.61;63.19;101740.84;5021613;28;20029;-82
2021/09/17 02:45:58;;;;;;;0.57;0.57;;;;;;;19.62;62.86;101734.53;5031633;28;20057;-82
2021/09/17 02:48:26;;;;;;;0.55;0.55;;;;;;;19.62;63.03;101736.34;5026809;28;20030;-83
2021/09/17 02:50:53;;;;;;;0.20;0.20;;;;;;;19.64;63.01;101739.84;5035629;28;20117;-82
2021/09/17 02:53:19;;;;;;;0.15;0.15;;;;;;;19.63;63.02;101736.28;5019130;28;20084;-82
2021/09/17 02:55:46;;;;;;;3.03;0.80;;;;;;;19.63;63.28;101730.03;5033856;28;20056;-83
2021/09/17 02:58:12;;;;;;;2.90;0.90;;;;;;;19.62;63.40;101734.53;5035325;28;20061;-81
2021/09/17 03:00:41;;;;;;;2.50;1.73;;;;;;;19.66;62.84;101732.59;5035125;28;20548;-82
2021/09/17 03:03:08;;;;;;;0.10;0.10;;;;;;;19.67;63.03;101727.13;5035107;28;20084;-84
2021/09/17 03:05:34;;;;;;;0.60;0.60;;;;;;;19.68;63.10;101717.28;5031654;28;20056;-82
2021/09/17 03:08:01;;;;;;;0.50;0.50;;;;;;;19.70;63.08;101715.38;5029378;28;20028;-85
2021/09/17 03:10:27;;;;;;;0.20;0.20;;;;;;;19.71;62.92;101709.94;5034387;28;20159;-83
2021/09/17 03:12:53;;;;;;;0.20;0.20;;;;;;;19.72;63.20;101708.13;5020509;28;20584;-84
2021/09/17 03:15:20;;;;;;;1.65;1.55;;;;;;;19.72;63.15;101708.13;5031589;28;20073;-84
2021/09/17 03:17:46;;;;;;;0.63;0.63;;;;;;;19.72;63.36;101711.66;5033734;28;20029;-83
2021/09/17 03:22:44;;;;;;;0.27;0.27;;;;;;;19.72;63.31;101708.13;5034306;28;20050;-84
2021/09/17 03:25:10;;;;;;;1.45;0.60;;;;;;;19.72;63.36;101705.44;5034985;28;20037;-84
2021/09/17 03:27:37;;;;;;;1.27;1.17;;;;;;;19.69;63.40;101698.38;5035827;28;20423;-80
2021/09/17 03:30:05;;;;;;;0.57;0.57;;;;;;;19.70;63.48;101694.75;5036059;28;20037;-82
2021/09/17 03:32:32;;;;;;;0.65;0.65;;;;;;;19.64;63.87;101689.66;5015688;28;20034;-84
2021/09/17 03:34:58;;;;;;;1.17;1.10;;;;;;;19.66;63.60;101694.94;5015665;28;20026;-84
2021/09/17 03:37:25;;;;;;;1.90;1.58;;;;;;;19.61;63.87;101694.28;5016059;28;20058;-83
2021/09/17 03:39:51;;;;;;;1.55;1.45;;;;;;;19.60;63.70;101693.44;5016145;28;20532;-83
2021/09/17 03:42:17;;;;;;;2.92;0.55;;;;;;;19.59;64.06;101688.09;5015611;28;20034;-83
2021/09/17 03:44:43;;;;;;;0.98;0.98;;;;;;;19.59;63.65;101691.66;5015896;28;20072;-84
2021/09/17 03:47:10;;;;;;;0.55;0.55;;;;;;;19.52;64.16;101695.56;5016243;28;20045;-82
2021/09/17 03:49:36;;;;;;;1.75;0.90;;;;;;;19.55;63.83;101690.94;5016516;28;20033;-84
2021/09/17 03:52:02;;;;;;;0.15;0.15;;;;;;;19.54;63.81;101685.63;5014940;28;20454;-84
2021/09/17 03:54:29;;;;;;;2.17;2.05;;;;;;;19.49;64.33;101690.31;5015635;28;20521;-83
2021/09/17 03:56:57;;;;;;;2.10;1.27;;;;;;;19.50;64.00;101692.94;5015303;28;20076;-83
2021/09/17 03:59:23;;;;;;;0.93;0.93;;;;;;;19.49;64.30;101691.19;5015298;28;20037;-84
2021/09/17 04:01:49;;;;;;;2.60;2.42;;;;;;;19.52;63.81;101690.19;5014950;28;20088;-83
2021/09/17 04:04:16;;;;;;;0.77;0.77;;;;;;;19.50;64.18;101681.31;5014989;28;20102;-83
2021/09/17 04:06:43;;;;;;;4.18;1.52;;;;;;;19.51;64.00;101688.44;5015305;28;20030;-83
2021/09/17 04:09:10;;;;;;;0.93;0.93;;;;;;;19.47;63.94;101682.31;5015399;28;20033;-84
2021/09/17 04:11:37;;;;;;;2.10;0.75;;;;;;;19.49;64.08;101679.56;5013217;28;20476;-84
2021/09/17 04:14:04;;;;;;;1.23;1.23;;;;;;;19.49;63.98;101674.19;5015341;28;20457;-80
2021/09/17 04:16:30;;;;;;;1.13;1.13;;;;;;;19.47;64.05;101676.94;5015286;28;20022;-84
2021/09/17 04:18:56;;;;;;;1.17;1.15;;;;;;;19.46;64.04;101671.66;5015289;28;20384;-84
2021/09/17 04:21:22;;;;;;;2.30;2.10;;;;;;;19.46;63.80;101674.34;5015294;28;20038;-82
2021/09/17 04:23:48;;;;;;;1.15;1.15;;;;;;;19.41;64.25;101674.53;5015694;28;20498;-83
2021/09/17 04:26:15;;;;;;;0.85;0.85;;;;;;;19.43;64.18;101680.72;5014984;28;20032;-83
2021/09/17 04:28:41;;;;;;;0.68;0.68;;;;;;;19.42;64.02;101673.59;5014903;28;20030;-83
2021/09/17 04:31:07;;;;;;;2.67;2.03;;;;;;;19.42;64.27;101678.09;5015004;28;20026;-81
2021/09/17 04:33:33;;;;;;;2.78;1.92;;;;;;;19.44;64.08;101676.22;5014794;28;20034;-82
2021/09/17 04:35:59;;;;;;;1.65;0.65;;;;;;;19.42;64.27;101678.97;5014379;28;20044;-83
2021/09/17 04:38:25;;;;;;;1.63;1.20;;;;;;;19.44;64.15;101681.59;5014879;28;20073;-84
2021/09/17 04:40:52;;;;;;;0.60;0.60;;;;;;;19.42;64.26;101684.34;5014641;28;20068;-83
2021/09/17 04:43:18;;;;;;;2.30;1.08;;;;;;;19.45;64.00;101677.97;5014226;28;20026;-84
2021/09/17 04:45:44;;;;;;;0.28;0.28;;;;;;;19.48;63.85;101677.84;5014302;28;20037;-83
2021/09/17 04:48:13;;;;;;;2.70;1.55;;;;;;;19.51;63.93;101672.31;5012904;28;20030;-84
2021/09/17 04:50:40;;;;;;;1.33;1.30;;;;;;;19.52;63.93;101676.75;5029360;23;20895;-90
2021/09/17 04:53:07;;;;;;;3.65;1.58;;;;;;;19.53;63.96;101675.81;5020858;28;20101;-90
2021/09/17 04:55:34;;;;;;;0.63;0.52;;;;;;;19.52;64.07;101677.59;5030990;28;20044;-91
2021/09/17 04:58:09;;;;;;;3.53;1.55;;;;;;;19.58;63.75;101672.91;5019991;28;20116;-90
2021/09/17 05:00:36;;;;;;;0.20;0.20;;;;;;;19.54;63.94;101680.25;5019541;28;20033;-91
2021/09/17 05:03:03;;;;;;;1.55;0.85;;;;;;;19.51;64.01;101678.53;5008734;28;20481;-89
2021/09/17 05:05:29;;;;;;;0.35;0.35;;;;;;;19.50;64.10;101678.63;5006060;28;20614;-91
2021/09/17 05:07:56;;;;;;;0.65;0.65;;;;;;;19.48;63.99;101677.84;5005032;28;20026;-87
2021/09/17 05:10:23;;;;;;;1.50;1.40;;;;;;;19.44;64.19;101670.81;5001449;28;20034;-82
2021/09/17 05:12:49;;;;;;;3.65;2.13;;;;;;;19.39;64.17;101677.28;5005250;28;20034;-89
2021/09/17 05:15:16;;;;;;;0.50;0.50;;;;;;;19.38;64.25;101674.69;5008342;28;20041;-90
2021/09/17 05:17:42;;;;;;;0.38;0.38;;;;;;;19.39;64.24;101679.13;5013818;28;20021;-88
2021/09/17 05:20:09;;;;;;;1.25;1.10;;;;;;;19.31;64.32;101676.75;5012978;28;20065;-91
2021/09/17 05:22:36;;;;;;;1.13;1.13;;;;;;;19.30;64.42;101677.72;5011499;28;20500;-92
2021/09/17 05:25:02;;;;;;;0.50;0.50;;;;;;;19.30;64.14;101674.13;5012943;28;20393;-91
2021/09/17 05:27:28;;;;;;;0.35;0.35;;;;;;;19.23;64.44;101678.91;5013699;28;20417;-89
2021/09/17 05:29:54;;;;;;;0.95;0.93;;;;;;;19.25;64.20;101679.69;5013131;28;20026;-89
2021/09/17 05:32:21;;;;;;;1.80;1.70;;;;;;;19.23;64.61;101686.97;5012661;28;20057;-90
2021/09/17 05:34:48;;;;;;;0.65;0.65;;;;;;;19.22;64.71;101682.53;5012992;28;20088;-91
2021/09/17 05:37:15;;;;;;;1.92;1.83;;;;;;;19.20;64.82;101676.34;5014139;28;20033;-89
2021/09/17 05:39:42;;;;;;;2.13;1.92;;;;;;;19.21;64.68;101673.56;5009886;28;20026;-91
2021/09/17 05:42:08;;;;;;;1.67;1.10;;;;;;;19.24;64.45;101677.97;5012830;28;20026;-90
2021/09/17 05:44:34;;;;;;;2.47;1.55;;;;;;;19.21;64.54;101680.78;5013472;28;20030;-90
2021/09/17 05:47:01;;;;;;;8.93;1.58;;;;;;;19.24;64.64;101686.03;5015183;28;20022;-89
2021/09/17 05:49:27;;;;;;;3.10;0.77;;;;;;;19.23;64.78;101687.81;5016548;28;20065;-90
2021/09/17 05:51:53;;;;;;;0.55;0.55;;;;;;;19.26;64.59;101689.50;5016441;28;20034;-89
2021/09/17 05:54:19;;;;;;;0.68;0.68;;;;;;;19.28;64.64;101684.94;5017223;28;20099;-92
2021/09/17 05:56:45;;;;;;;4.85;0.93;;;;;;;19.31;64.69;101687.50;5010589;28;20025;-90
2021/09/17 05:59:11;;;;;;;0.60;0.60;;;;;;;19.31;64.46;101687.50;5017136;28;20036;-90
2021/09/17 06:01:37;;;;;;;0.50;0.50;;;;;;;19.34;64.29;101692.75;5017103;28;20488;-87
2021/09/17 06:04:04;;;;;;;3.38;0.98;;;;;;;19.34;64.32;101687.38;5013768;28;20084;-91
2021/09/17 06:06:30;;;;;;;1.38;1.38;;;;;;;19.35;64.25;101685.53;5017589;28;20038;-91
2021/09/17 06:08:57;;;;;;;0.65;0.65;;;;;;;19.35;64.44;101686.44;5013548;28;20041;-88
2021/09/17 06:11:24;;;;;;;0.20;0.20;;;;;;;19.35;64.06;101682.84;5013597;28;20038;-90
2021/09/17 06:13:50;;;;;;;1.17;1.17;;;;;;;19.29;64.31;101678.63;5012122;28;20066;-89
2021/09/17 06:16:16;;;;;;;0.88;0.85;;;;;;;19.34;64.02;101683.78;5006834;28;20547;-84
2021/09/17 06:18:42;;;;;;;4.28;1.98;;;;;;;19.34;64.27;101686.47;5011914;28;20042;-88
2021/09/17 06:21:08;;;;;;;1.00;1.00;;;;;;;19.34;64.25;101687.38;5016716;28;20029;-90
2021/09/17 06:23:35;;;;;;;1.95;1.10;;;;;;;19.35;64.26;101686.44;5016360;28;20705;-88
2021/09/17 06:26:01;;;;;;;0.08;0.08;;;;;;;19.37;63.88;101687.22;5015430;28;20389;-89
2021/09/17 06:28:27;;;;;;;1.20;1.17;;;;;;;19.40;63.83;101689.78;5015956;28;20496;-90
2021/09/17 06:30:53;;;;;;;0.75;0.75;;;;;;;19.43;63.79;101690.56;5016188;28;20060;-91
2021/09/17 06:33:19;;;;;;;0.22;0.22;;;;;;;19.45;63.72;101686.03;4999953;28;20034;-89
2021/09/17 06:35:46;;;;;;;0.43;0.43;;;;;;;19.46;63.52;101685.09;5014989;28;20058;-88
2021/09/17 06:38:12;;;;;;;0.65;0.65;;;;;;;19.51;63.29;101693.81;5008646;28;20113;-90
2021/09/17 06:40:38;;;;;;;0.47;0.47;;;;;;;19.57;63.01;101688.16;5008010;28;20026;-87
2021/09/17 06:43:04;;;;;;;0.60;0.60;;;;;;;19.64;63.08;101678.88;5007958;28;20065;-89
2021/09/17 06:45:31;;;;;;;1.00;1.00;;;;;;;19.70;62.92;101677.72;5010088;28;20057;-90
2021/09/17 06:47:58;;;;;;;3.30;0.93;;;;;;;19.77;62.83;101678.34;5010357;28;20102;-90
2021/09/17 06:50:28;;;;;;;1.80;1.70;;;;;;;19.78;62.62;101678.25;5005547;28;20465;-89
2021/09/17 06:52:55;;;;;;;0.30;0.30;;;;;;;19.85;62.51;101681.56;5002213;28;20050;-89
2021/09/17 06:55:25;;;;;;;7.70;1.55;;;;;;;19.92;62.44;101680.34;5001601;28;20035;-88
2021/09/17 06:57:54;;;;;;;0.25;0.25;;;;;;;19.98;62.28;101681.91;5010614;28;20026;-90
2021/09/17 07:00:23;;;;;;;0.30;0.30;;;;;;;20.04;62.46;101685.16;5003195;28;20037;-88
2021/09/17 07:02:49;;;;;;;0.55;0.55;;;;;;;20.10;62.04;101691.19;4990513;28;20053;-87
2021/09/17 07:05:16;;;;;;;1.02;0.98;;;;;;;20.15;61.97;101681.09;5028997;28;20030;-88
2021/09/17 07:07:42;;;;;;;0.55;0.55;;;;;;;20.04;62.11;101682.47;5011812;28;20341;-89
2021/09/17 07:10:10;;;;;;;1.15;0.95;;;;;;;20.12;62.02;101681.25;5001911;28;20035;-88
2021/09/17 07:12:37;;;;;;;1.27;1.27;;;;;;;20.22;61.71;101690.63;4998801;28;20077;-90
2021/09/17 07:15:05;;;;;;;1.63;1.52;;;;;;;20.16;61.52;101685.53;5009799;28;20034;-87
2021/09/17 07:17:31;;;;;;;1.48;1.40;;;;;;;20.20;61.42;101682.63;5000272;28;20018;-88
2021/09/17 07:19:57;;;;;;;1.10;1.10;;;;;;;20.17;61.47;101687.28;5007365;28;20026;-89
2021/09/17 07:22:23;;;;;;;0.10;0.10;;;;;;;20.18;61.78;101676.44;4994849;28;20031;-88
2021/09/17 07:24:50;;;;;;;0.30;0.30;;;;;;;20.18;61.82;101679.13;5001501;28;20044;-88
2021/09/17 07:27:16;;;;;;;0.35;0.35;;;;;;;20.27;61.75;101667.06;5012623;28;20052;-89
2021/09/17 07:29:43;;;;;;;0.30;0.30;;;;;;;20.28;61.64;101667.94;5012253;28;20474;-90
2021/09/17 07:32:09;;;;;;;0.93;0.93;;;;;;;20.25;61.93;101677.03;5002243;28;20034;-83
2021/09/17 07:34:35;;;;;;;1.13;1.13;;;;;;;20.33;61.92;101677.53;5006392;28;20121;-88
2021/09/17 07:37:01;;;;;;;1.95;1.85;;;;;;;20.34;61.96;101671.19;5005978;28;20026;-90
2021/09/17 07:39:28;;;;;;;4.30;2.85;;;;;;;20.30;62.08;101676.78;4998860;28;20069;-88
2021/09/17 07:41:55;;;;;;;6.03;1.33;;;;;;;20.33;62.17;101672.16;5011639;28;20030;-90
2021/09/17 07:44:21;;;;;;;0.47;0.47;;;;;;;20.39;61.95;101675.47;5007842;28;20045;-91
2021/09/17 07:46:48;;;;;;;1.27;1.17;;;;;;;20.36;62.31;101679.19;4999162;28;20382;-93
2021/09/17 07:49:14;;;;;;;0.57;0.57;;;;;;;20.42;62.20;101683.41;4996970;28;20038;-91
2021/09/17 07:51:40;;;;;;;1.65;1.55;;;;;;;20.33;62.19;101682.91;5003268;28;20041;-92
2021/09/17 07:54:06;;;;;;;0.57;0.57;;;;;;;20.40;62.17;101685.31;5013691;28;20030;-92
2021/09/17 07:56:32;;;;;;;2.53;2.33;;;;;;;20.44;62.12;101678.84;5011982;28;20058;-91
2021/09/17 07:58:59;;;;;;;0.47;0.47;;;;;;;20.46;62.67;101680.53;5009381;28;20389;-93
2021/09/17 08:01:25;;;;;;;2.45;2.35;;;;;;;20.35;62.55;101686.41;5005449;28;20045;-92
2021/09/17 08:03:51;;;;;;;1.95;1.83;;;;;;;20.53;62.63;101681.94;5004291;28;20484;-93
2021/09/17 08:06:19;;;;;;;1.35;1.33;;;;;;;20.61;62.10;101681.59;5014152;28;20413;-90
2021/09/17 08:08:45;;;;;;;1.05;1.05;;;;;;;20.68;62.11;101682.16;5013457;28;20385;-94
2021/09/17 08:11:11;;;;;;;2.60;2.40;;;;;;;20.78;61.85;101678.06;5013998;28;20026;-90
2021/09/17 08:13:38;;;;;;;2.25;2.15;;;;;;;20.76;61.83;101688.06;5014000;28;20034;-88
2021/09/17 08:16:07;;;;;;;1.85;1.75;;;;;;;20.86;61.94;101688.50;5013000;28;20381;-87
2021/09/17 08:18:33;;;;;;;1.17;1.02;;;;;;;20.79;62.10;101690.59;5013449;28;20113;-89
2021/09/17 08:20:59;;;;;;;3.40;3.13;;;;;;;20.84;62.26;101690.38;5013229;28;20076;-89
2021/09/17 08:23:27;;;;;;;1.10;1.10;;;;;;;20.96;62.21;101696.94;5013012;28;20452;-89
2021/09/17 08:25:54;;;;;;;2.33;1.77;;;;;;;21.02;61.73;101693.94;5013151;28;20033;-88
2021/09/17 08:28:21;;;;;;;2.08;1.48;;;;;;;21.10;61.34;101682.81;5013112;28;20522;-89
2021/09/17 08:30:48;;;;;;;2.38;2.28;;;;;;;20.95;61.96;101696.09;5012958;28;20030;-90
2021/09/17 08:33:14;;;;;;;2.88;2.67;;;;;;;20.98;61.76;101695.06;5013070;28;20034;-89
2021/09/17 08:35:40;;;;;;;2.00;1.88;;;;;;;21.10;61.76;101698.97;5013241;28;20118;-89
2021/09/17 08:38:06;;;;;;;1.58;1.48;;;;;;;21.07;61.79;101702.69;5013427;28;20033;-94
2021/09/17 08:40:33;;;;;;;3.50;1.90;;;;;;;21.14;61.71;101696.03;5020269;28;20034;-90
2021/09/17 08:43:01;;;;;;;3.20;3.00;;;;;;;21.21;61.42;101696.59;5015010;28;20034;-92
2021/09/17 08:45:28;;;;;;;2.10;1.90;;;;;;;21.18;61.79;101688.66;5015318;28;20112;-90
2021/09/17 08:47:54;;;;;;;2.05;1.40;;;;;;;21.24;61.81;101692.88;5016279;28;20032;-81
2021/09/17 08:50:22;;;;;;;1.95;1.85;;;;;;;21.34;61.58;101695.00;5012847;28;20034;-83
2021/09/17 08:52:49;;;;;;;1.75;1.65;;;;;;;21.33;61.01;101695.97;5012720;28;20045;-82
2021/09/17 08:55:15;;;;;;;2.35;2.20;;;;;;;21.44;60.47;101697.22;5012942;28;20026;-82
2021/09/17 08:57:44;;;;;;;16.25;1.98;;;;;;;21.53;60.56;101699.44;5013299;28;20033;-82
2021/09/17 09:03:28;;;;;;;0.98;0.88;;;;;;;21.88;59.53;101691.31;5070003;28;20790;-84
2021/09/17 09:05:54;;;;;;;0.85;0.85;;;;;;;21.83;59.10;101692.53;5070455;28;20099;-84
2021/09/17 09:08:24;;;;;;;1.55;1.48;;;;;;;21.92;59.29;101698.28;5069817;28;20033;-85
2021/09/17 09:10:51;;;;;;;5.15;2.75;;;;;;;22.08;59.03;101692.03;5069716;28;20033;-84
2021/09/17 09:13:18;;;;;;;15.13;1.67;;;;;;;22.06;59.25;101693.97;5069503;28;20423;-83
2021/09/17 09:15:44;;;;;;;4.53;2.20;;;;;;;22.14;59.14;101698.00;5069664;28;20025;-93
2021/09/17 09:18:13;;;;;;;1.33;1.27;;;;;;;22.33;58.90;101696.06;5069245;28;20087;-84
2021/09/17 09:20:43;;;;;;;1.25;1.23;;;;;;;22.40;58.35;101697.50;5068995;28;20055;-83
2021/09/17 09:23:16;;;;;;;0.88;0.88;;;;;;;22.46;58.05;101689.91;5069053;28;20029;-82
2021/09/17 09:26:05;;;;;;;1.65;1.25;;;;;;;22.65;57.88;101690.72;5069502;28;20035;-83
2021/09/17 09:28:43;;;;;;;1.33;1.33;;;;;;;22.57;57.55;101686.63;5069218;28;20033;-83
2021/09/17 09:31:15;;;;;;;0.80;0.80;;;;;;;22.76;57.24;101696.38;5068985;28;20094;-84
2021/09/17 09:36:24;;;;;;;2.10;1.58;;;;;;;22.77;56.55;101684.59;5089580;27;20811;-84
2021/09/17 09:38:54;;;;;;;1.75;1.63;;;;;;;22.79;56.50;101690.75;5069592;28;20044;-80
2021/09/17 09:41:30;;;;;;;3.15;1.85;;;;;;;22.92;56.74;101689.09;5060806;28;20021;-83
2021/09/17 09:46:41;;;;;;;1.42;1.35;;;;;;;22.92;56.22;101688.25;5090548;27;20430;-81
2021/09/17 09:49:25;;;;;;;2.05;1.95;;;;;;;23.21;55.55;101683.81;5069832;28;20025;-85
2021/09/17 09:54:37;;;;;;;2.83;2.58;;;;;;;23.44;54.16;101684.28;5069007;27;20407;-90
2021/09/17 09:57:05;;;;;;;3.28;1.33;;;;;;;23.56;53.85;101682.63;5069738;28;20574;-92
2021/09/17 09:59:33;;;;;;;1.85;1.75;;;;;;;23.57;53.69;101685.22;5067944;28;20036;-89
2021/09/17 10:02:02;;;;;;;1.38;1.27;;;;;;;23.66;53.91;101682.94;5067556;28;20040;-88
2021/09/17 10:04:30;;;;;;;2.25;1.73;;;;;;;23.72;53.59;101677.16;5063532;28;20064;-89
2021/09/17 10:07:07;;;;;;;0.93;0.93;;;;;;;23.62;52.32;101678.69;5065717;28;20112;-92
2021/09/17 10:09:36;;;;;;;0.43;0.43;;;;;;;23.75;53.19;101676.94;5050710;28;20559;-92
2021/09/17 10:12:04;;;;;;;3.45;1.88;;;;;;;23.81;52.39;101684.66;5052209;28;20449;-90
2021/09/17 10:14:31;;;;;;;1.30;1.27;;;;;;;23.95;52.86;101682.97;5054241;28;20043;-92
2021/09/17 10:16:59;;;;;;;1.83;1.73;;;;;;;24.06;52.27;101681.34;5053654;28;20037;-92
2021/09/17 10:19:26;;;;;;;0.93;0.88;;;;;;;24.19;52.90;101680.56;5058761;28;20562;-91
2021/09/17 10:21:56;;;;;;;4.22;2.17;;;;;;;24.25;51.60;101681.97;5062477;28;20102;-91
2021/09/17 10:24:39;;;;;;;1.63;0.95;;;;;;;24.32;52.16;101686.03;5047638;28;20495;-90
2021/09/17 10:27:16;;;;;;;1.00;1.00;;;;;;;24.31;51.67;101690.59;5053950;28;20048;-89
2021/09/17 10:29:46;;;;;;;0.13;0.13;;;;;;;24.11;51.05;101689.13;5061559;28;20389;-86
2021/09/17 10:32:36;;;;;;;1.02;1.02;;;;;;;24.30;50.42;101678.00;5053981;28;20110;-89
2021/09/17 10:40:49;;;;;;;0.82;0.82;;;;;;;24.17;49.98;101686.03;5181799;27;20369;-86
2021/09/17 10:43:19;;;;;;;0.90;0.90;;;;;;;24.12;50.50;101681.91;5166625;27;20027;-87
2021/09/17 10:45:48;;;;;;;2.42;1.65;;;;;;;24.10;50.77;101676.59;5164769;27;20481;-90
2021/09/17 10:48:17;;;;;;;0.70;0.70;;;;;;;24.09;50.88;101679.38;5170478;27;20027;-88
2021/09/17 10:56:21;;;;;;;1.48;1.38;;;;;;;24.50;50.93;101668.56;5166748;27;20401;-88
2021/09/17 10:59:13;;;;;;;2.38;1.35;;;;;;;24.81;50.15;101666.56;5130839;27;20478;-84
2021/09/17 11:09:59;;;;;;;0.30;0.30;;;;;;;24.97;49.73;101665.50;5082038;27;20576;-85
2021/09/17 11:12:29;;;;;;;0.35;0.35;;;;;;;24.90;47.74;101667.78;5065067;28;20545;-89
2021/09/17 11:15:02;;;;;;;0.75;0.73;;;;;;;25.01;47.09;101662.50;5069731;28;20156;-90
2021/09/17 11:23:02;;;;;;;0.22;0.22;;;;;;;25.03;46.31;101659.66;5077524;28;20965;-91
2021/09/17 11:25:36;;;;;;;0.85;0.80;;;;;;;25.22;46.60;101658.41;5052236;28;20041;-91
2021/09/17 11:28:06;;;;;;;0.20;0.20;;;;;;;25.20;46.56;101656.66;5046096;28;20499;-91
2021/09/17 11:30:34;;;;;;;0.38;0.30;;;;;;;25.40;46.29;101662.59;5049046;28;20497;-91
2021/09/17 11:33:14;;;;;;;0.40;0.40;;;;;;;25.43;45.86;101662.34;5053035;28;20404;-89
2021/09/17 11:35:41;;;;;;;8.45;1.00;;;;;;;25.45;45.49;101664.97;5040503;28;20033;-89
2021/09/17 11:38:07;;;;;;;0.57;0.57;;;;;;;25.56;46.14;101659.66;5036277;28;20517;-88
2021/09/17 11:40:33;;;;;;;0.68;0.68;;;;;;;25.61;46.03;101660.19;5043470;28;20060;-89
2021/09/17 11:43:15;;;;;;;0.60;0.60;;;;;;;25.67;45.88;101653.44;5048250;28;20499;-89
2021/09/17 11:45:46;;;;;;;0.32;0.32;;;;;;;25.61;45.56;101662.03;5045342;28;20425;-89
2021/09/17 11:48:20;;;;;;;0.65;0.65;;;;;;;25.80;44.75;101651.59;5036640;28;20022;-87
2021/09/17 11:50:46;;;;;;;0.32;0.32;;;;;;;25.86;45.70;101654.84;5048634;28;20038;-89
2021/09/17 11:53:14;;;;;;;0.63;0.63;;;;;;;25.89;46.07;101654.63;5041726;28;20472;-88
2021/09/17 11:55:40;;;;;;;0.40;0.40;;;;;;;25.82;45.39;101648.75;5045341;28;20037;-89
2021/09/17 11:58:06;;;;;;;0.47;0.47;;;;;;;25.66;46.00;101654.44;5039510;28;20045;-89
2021/09/17 12:00:32;;;;;;;0.25;0.25;;;;;;;25.58;46.12;101651.41;5041333;28;20029;-88
2021/09/17 12:03:06;;;;;;;0.75;0.75;;;;;;;25.01;45.16;101667.91;5055849;28;20555;-89
2021/09/17 12:05:36;;;;;;;0.20;0.20;;;;;;;25.16;44.87;101649.72;5059679;28;20036;-88